Elgin, NE (68636)

5:30 PM CST on February 06, 2016 (GMT -0600)
KNENELIG1 | | Change Station
CLOSE
Current Station
Personal Weather Station
Location: Neligh, NE
Elevation: 1750 ft
Nearby Weather Stations
Active Advisory: Wind Advisory

Elev 1750 ft 42.13 °N, 98.03 °W | Updated 47 seconds ago

Clear
Clear
38.1 °F
Feels Like 38 °F
N
1.0
Wind Variable Wind from WSW
Gusts 6.0 mph

Today
High -- | Low -- °F
--% Chance of Precip.
Yesterday
High -- | Low -- °F
Precip. -- in
Pressure 29.93 in
Visibility 10.0 miles
Clouds Clear
Windchill 38 °F
Dew Point 30 °F
Humidity 74%
Rainfall 0.00 in
Snow Depth Not available.
7:39 AM 5:53 PM
Waning Crescent, 4% visible
METAR KBVN 062315Z AUTO 20008KT 10SM CLR 03/M02 A2993 RMK AO2 T00251024
Pressure 29.93 in
Visibility 10.0 miles
Clouds Clear
Windchill 38 °F
Dew Point 30 °F
Humidity 74%
Rainfall 0.00 in
Snow Depth Not available.
7:39 AM 5:53 PM
Waning Crescent, 4% visible
METAR KBVN 062315Z AUTO 20008KT 10SM CLR 03/M02 A2993 RMK AO2 T00251024

10-Day Weather Forecast

Almanac

Astronomy

Feb. 06, 2016 Rise Set
Actual Time
Civil Twilight
Nautical Twilight
Astronomical Twilight
Moon
Length of Visible Light
Length of Day
Tomorrow will be .
, % of the Moon is Illuminated

Today's Extremes

State Highs State Lows

Community

WunderPhotos

Upload Photos

1,891,094 photos uploaded!

WunderBlog® & News

Nearby

Air Quality

  Air Quality AQ Index Pollutant
Not available.

Snow Depth

Station Depth Elevation

Earthquake Activity

City Distance Mag. Time & Date
Minimum magnitude displayed is 2.5.

Coastal Water Temperatures

Place Temperature

Stations

Nearby Weather Stations

Station Location Temp. Windchill Dew Point Humidity Wind Precip. Elev Updated Type
                   

Watches & Warnings

Wind Advisory
Issued: 3:05 PM CST Feb. 6, 2016 – National Weather Service

... Wind Advisory in effect from noon to 9 PM CST Sunday...

The National Weather Service in Omaha/valley has issued a Wind
Advisory... which is in effect from noon to 9 PM CST Sunday.

* Timing... northwest winds will increase early Sunday afternoon
and continue through Sunday evening.

* Winds... northwest winds of 25 to 35 mph with gusts to 45 mph.

* Impacts... winds of this magnitude will be hazardous to
motorists... especially those with high profile vehicles. In
addition... snow may begin to fall late Sunday afternoon which
will lead to widespread areas of blowing snow. This may create
hazardous travel conditions across the area..especially
Interstate 29.

Precautionary/preparedness actions...

A Wind Advisory means that sustained wind speeds between 30 to
39 mph or gusts between 45 to 57 mph are expected. Winds this
strong can make driving difficult... especially for high profile
vehicles. Use extra caution.


Pearson/Miller